Time;durP1;ratioP1;P1;durP2;ratioP2;P2;SDS_P1;SDS_P2;PMS_P1;PMS_P2;Temp;Humidity;BMP_temperature;BMP_pressure;BME280_temperature;BME280_humidity;BME280_pressure;Samples;Min_cycle;Max_cycle;Signal;HPM_P1;HPM_P2
2022/10/26 00:01:09;;;;;;;7.81;6.14;;;;;;;12.23;86.10;100989.81;447691;118;923029;-75
2022/10/26 00:02:12;;;;;;;6.04;5.56;;;;;;;12.24;86.11;100982.46;447563;118;923052;-75
2022/10/26 00:03:16;;;;;;;6.03;5.53;;;;;;;12.24;86.07;100980.53;447802;118;922515;-75
2022/10/26 00:04:19;;;;;;;6.06;5.56;;;;;;;12.23;86.04;100981.62;447745;118;922481;-76
2022/10/26 00:05:22;;;;;;;5.99;5.51;;;;;;;12.24;86.06;100980.53;447769;118;923171;-76
2022/10/26 00:06:29;;;;;;;5.79;5.36;;;;;;;12.24;86.10;100983.27;447715;118;922576;-76
2022/10/26 00:07:32;;;;;;;6.38;5.84;;;;;;;12.24;86.06;100974.26;447605;118;922551;-76
2022/10/26 00:08:35;;;;;;;6.41;5.92;;;;;;;12.24;86.01;100982.46;447751;118;922577;-76
2022/10/26 00:09:38;;;;;;;5.91;5.43;;;;;;;12.24;86.13;100975.06;448208;118;922485;-75
2022/10/26 00:10:41;;;;;;;6.50;6.01;;;;;;;12.25;86.02;100978.64;449284;118;930450;-75
2022/10/26 00:11:44;;;;;;;6.23;5.84;;;;;;;12.24;86.01;100975.06;449273;118;923004;-75
2022/10/26 00:12:49;;;;;;;6.47;5.96;;;;;;;12.24;86.07;100972.33;449284;118;922915;-75
2022/10/26 00:13:53;;;;;;;6.53;6.03;;;;;;;12.24;85.98;100971.52;449046;118;922645;-76
2022/10/26 00:14:56;;;;;;;6.37;5.76;;;;;;;12.25;85.98;100971.28;449234;118;922868;-76
2022/10/26 00:15:59;;;;;;;6.25;5.78;;;;;;;12.25;85.96;100973.17;449289;118;923038;-77
2022/10/26 00:17:02;;;;;;;6.67;6.16;;;;;;;12.25;85.96;100967.70;449233;118;922796;-76
2022/10/26 00:18:05;;;;;;;6.22;5.69;;;;;;;12.23;85.88;100965.22;449292;118;922481;-76
2022/10/26 00:19:08;;;;;;;6.42;5.84;;;;;;;12.23;85.91;100969.84;449253;118;922666;-76
2022/10/26 00:20:11;;;;;;;6.03;5.53;;;;;;;12.23;85.98;100965.22;452800;116;923144;-75
2022/10/26 00:21:15;;;;;;;6.64;6.21;;;;;;;12.23;85.94;100965.22;455505;116;922428;-75
2022/10/26 00:22:17;;;;;;;7.01;6.50;;;;;;;12.24;86.03;100972.33;455503;116;930544;-75
2022/10/26 00:23:20;;;;;;;5.92;5.38;;;;;;;12.24;86.03;100964.12;455552;116;922835;-75
2022/10/26 00:24:23;;;;;;;6.47;5.98;;;;;;;12.24;86.02;100972.33;455566;116;923009;-75
2022/10/26 00:25:27;;;;;;;6.96;6.46;;;;;;;12.24;85.98;100976.98;446616;118;923329;-76
2022/10/26 00:26:29;;;;;;;6.78;6.20;;;;;;;12.25;86.04;100975.91;438785;121;922531;-75
2022/10/26 00:27:33;;;;;;;6.36;5.88;;;;;;;12.24;85.98;100975.06;446620;118;922565;-76
2022/10/26 00:28:36;;;;;;;6.82;6.16;;;;;;;12.24;86.01;100977.80;438723;121;923466;-75
2022/10/26 00:29:39;;;;;;;6.34;5.92;;;;;;;12.23;86.00;100967.95;446465;118;930534;-76
2022/10/26 00:30:42;;;;;;;6.58;6.14;;;;;;;12.24;86.05;100972.33;445692;119;923428;-76
2022/10/26 00:31:45;;;;;;;6.37;5.89;;;;;;;12.26;86.06;100966.66;444803;119;922598;-76
2022/10/26 00:32:48;;;;;;;6.87;5.98;;;;;;;12.25;86.08;100968.55;442215;119;922525;-77
2022/10/26 00:33:55;;;;;;;6.11;5.65;;;;;;;12.24;86.21;100961.39;432496;122;922593;-76
2022/10/26 00:34:58;;;;;;;7.69;6.59;;;;;;;12.26;86.16;100952.98;434632;122;923023;-75
2022/10/26 00:36:03;;;;;;;6.12;5.70;;;;;;;12.26;86.16;100952.98;436867;120;922955;-76
2022/10/26 00:37:06;;;;;;;6.81;6.35;;;;;;;12.26;86.21;100951.09;426362;124;923364;-76
2022/10/26 00:38:09;;;;;;;6.01;5.61;;;;;;;12.26;86.16;100951.09;437924;121;922584;-76
2022/10/26 00:39:12;;;;;;;6.51;6.08;;;;;;;12.27;86.24;100951.94;437894;119;922862;-78
2022/10/26 00:40:17;;;;;;;6.39;5.98;;;;;;;12.26;86.22;100948.36;437763;121;923186;-76
2022/10/26 00:41:23;;;;;;;6.30;5.80;;;;;;;12.27;86.21;100951.94;437776;121;923042;-76
2022/10/26 00:42:26;;;;;;;6.49;6.04;;;;;;;12.27;86.25;100955.52;437695;121;922610;-78
2022/10/26 00:43:35;;;;;;;6.24;5.81;;;;;;;12.27;86.27;100960.98;437905;121;922566;-77
2022/10/26 00:44:51;;;;;;;7.13;6.51;;;;;;;12.27;86.27;100943.73;437697;121;922997;-76
2022/10/26 00:45:56;;;;;;;5.96;5.51;;;;;;;12.27;86.28;100952.78;437693;121;923011;-76
2022/10/26 00:46:59;;;;;;;6.27;5.73;;;;;;;12.28;86.31;100946.27;437662;121;922536;-77
2022/10/26 00:48:06;;;;;;;5.61;5.24;;;;;;;12.27;86.42;100944.58;437886;121;922776;-76
2022/10/26 00:49:18;;;;;;;6.03;5.56;;;;;;;12.28;86.36;100950.89;437401;119;922628;-76
2022/10/26 00:50:39;;;;;;;5.83;5.32;;;;;;;12.27;86.34;100944.58;437731;121;922527;-76
2022/10/26 00:51:52;;;;;;;6.39;5.92;;;;;;;12.28;86.43;100939.95;438190;120;922907;-76
2022/10/26 00:52:58;;;;;;;6.12;5.71;;;;;;;12.28;86.50;100943.53;440503;120;923087;-76
2022/10/26 00:54:05;;;;;;;6.03;5.63;;;;;;;12.28;86.48;100939.95;440481;120;922555;-76
2022/10/26 00:55:08;;;;;;;6.83;6.37;;;;;;;12.27;86.46;100939.11;440468;120;922517;-76
2022/10/26 00:56:11;;;;;;;5.91;5.42;;;;;;;12.28;86.50;100940.80;440606;120;923516;-76
2022/10/26 00:57:15;;;;;;;6.88;6.24;;;;;;;12.28;86.48;100939.95;440665;120;922788;-76
2022/10/26 00:58:20;;;;;;;6.96;6.35;;;;;;;12.28;86.47;100934.48;440560;120;923131;-76
2022/10/26 00:59:23;;;;;;;7.01;6.49;;;;;;;12.28;86.48;100935.33;440471;120;922979;-75
2022/10/26 01:00:26;;;;;;;6.19;5.74;;;;;;;12.28;86.48;100934.48;440611;120;923094;-76
2022/10/26 01:01:32;;;;;;;6.31;5.93;;;;;;;12.28;86.49;100938.06;440548;120;922884;-75
2022/10/26 01:02:35;;;;;;;7.39;6.68;;;;;;;12.29;86.57;100936.17;440432;120;922597;-77
2022/10/26 01:03:38;;;;;;;5.89;5.49;;;;;;;12.29;86.54;100937.01;440619;120;922967;-76
2022/10/26 01:04:41;;;;;;;6.29;5.89;;;;;;;12.30;86.51;100940.55;440645;120;922966;-77
2022/10/26 01:05:46;;;;;;;6.40;5.90;;;;;;;12.30;86.55;100933.19;440950;120;922737;-77
2022/10/26 01:06:50;;;;;;;6.89;6.37;;;;;;;12.32;86.63;100935.72;442024;120;922607;-77
2022/10/26 01:07:54;;;;;;;7.57;6.63;;;;;;;12.32;86.70;100930.25;441933;120;930488;-75
2022/10/26 01:08:57;;;;;;;6.39;5.98;;;;;;;12.32;86.72;100932.98;442147;120;922566;-76
2022/10/26 01:10:00;;;;;;;6.55;6.09;;;;;;;12.33;86.73;100929.20;442136;120;922574;-76
2022/10/26 01:11:04;;;;;;;7.22;6.65;;;;;;;12.33;86.69;100926.46;442114;120;922645;-76
2022/10/26 01:12:07;;;;;;;6.91;6.46;;;;;;;12.33;86.80;100923.73;442107;120;922488;-76
2022/10/26 01:13:12;;;;;;;6.54;6.03;;;;;;;12.33;86.74;100929.20;442093;120;922918;-75
2022/10/26 01:14:18;;;;;;;6.53;6.11;;;;;;;12.33;86.90;100915.52;441900;120;922645;-76
2022/10/26 01:15:25;;;;;;;6.81;6.28;;;;;;;12.33;86.93;100915.52;441988;120;922746;-76
2022/10/26 01:16:48;;;;;;;6.65;6.25;;;;;;;12.33;86.90;100908.16;441095;118;922895;-76
2022/10/26 01:18:03;;;;;;;6.98;6.52;;;;;;;12.33;86.95;100921.84;440307;120;922627;-77
2022/10/26 01:19:37;;;;;;;6.18;5.76;;;;;;;12.34;87.02;100917.21;440237;120;922710;-76
2022/10/26 01:20:46;;;;;;;6.05;5.61;;;;;;;12.34;87.07;100917.21;442059;118;922982;-77
2022/10/26 01:22:08;;;;;;;6.91;6.41;;;;;;;12.32;87.14;100908.37;442965;119;922585;-77
2022/10/26 01:23:14;;;;;;;6.02;5.61;;;;;;;12.32;87.12;100908.37;443371;119;922585;-74
2022/10/26 01:24:24;;;;;;;6.61;5.99;;;;;;;12.32;87.24;100900.17;443195;119;922999;-77
2022/10/26 01:26:01;;;;;;;6.82;6.38;;;;;;;12.30;87.23;100907.74;443372;119;922744;-75
2022/10/26 01:27:25;;;;;;;6.09;5.61;;;;;;;12.30;87.19;100899.54;443431;119;922600;-77
2022/10/26 01:28:40;;;;;;;5.94;5.41;;;;;;;12.29;87.28;100898.73;443377;119;923373;-76
2022/10/26 01:29:56;;;;;;;5.56;5.16;;;;;;;12.28;87.40;100902.52;441658;119;923018;-76
2022/10/26 01:31:02;;;;;;;6.28;5.78;;;;;;;12.29;87.40;100897.89;432769;121;922569;-75
2022/10/26 01:32:09;;;;;;;6.39;5.76;;;;;;;12.29;87.54;100900.63;440269;119;922519;-75
2022/10/26 01:33:28;;;;;;;6.24;5.56;;;;;;;12.29;87.53;100898.73;441717;120;922826;-75
2022/10/26 01:34:37;;;;;;;6.42;5.41;;;;;;;12.29;87.56;100903.36;437719;121;922519;-75
2022/10/26 01:36:02;;;;;;;6.20;5.66;;;;;;;12.29;87.50;100898.73;437818;120;922509;-76
2022/10/26 01:37:11;;;;;;;5.60;5.24;;;;;;;12.29;87.47;100898.73;438181;121;923666;-76
2022/10/26 01:38:36;;;;;;;5.52;5.19;;;;;;;12.30;87.53;100896.81;438150;121;922567;-76
2022/10/26 01:39:42;;;;;;;5.12;4.82;;;;;;;12.30;87.56;100894.07;430255;123;922826;-76
2022/10/26 01:41:06;;;;;;;5.76;5.36;;;;;;;12.39;87.69;100896.36;482105;110;948166;-75
2022/10/26 01:42:11;;;;;;;4.94;4.62;;;;;;;12.30;87.63;100899.54;473131;112;923046;-77
2022/10/26 01:43:16;;;;;;;5.76;5.32;;;;;;;12.30;87.75;100894.91;473735;112;923152;-75
2022/10/26 01:44:41;;;;;;;5.72;5.26;;;;;;;12.29;87.68;100893.27;468296;112;923076;-76
2022/10/26 01:45:47;;;;;;;5.36;5.06;;;;;;;12.31;87.75;100896.59;465282;114;930487;-75
2022/10/26 01:46:53;;;;;;;5.68;5.28;;;;;;;12.32;87.65;100898.28;465286;114;922595;-75
2022/10/26 01:47:58;;;;;;;5.60;5.20;;;;;;;12.32;87.70;100894.70;465269;114;922801;-76
2022/10/26 01:49:05;;;;;;;5.03;4.64;;;;;;;12.32;87.63;100881.03;465271;113;922508;-75
2022/10/26 01:50:10;;;;;;;5.07;4.65;;;;;;;12.32;87.66;100886.50;465261;114;922840;-76
2022/10/26 01:51:14;;;;;;;5.48;5.02;;;;;;;12.34;87.62;100893.44;465290;114;922521;-76
2022/10/26 01:52:18;;;;;;;6.07;5.52;;;;;;;12.35;87.65;100897.02;462964;114;922880;-75
2022/10/26 01:53:21;;;;;;;5.18;4.81;;;;;;;12.35;87.64;100889.62;462030;114;922723;-77
2022/10/26 01:54:25;;;;;;;5.74;5.35;;;;;;;12.37;87.64;100889.41;462106;114;930494;-76
2022/10/26 01:55:46;;;;;;;5.39;4.99;;;;;;;12.36;87.72;100891.31;462248;114;923338;-77
2022/10/26 01:56:53;;;;;;;5.27;4.68;;;;;;;12.38;87.60;100885.63;461992;114;922784;-74
2022/10/26 01:57:59;;;;;;;6.36;5.88;;;;;;;12.38;87.62;100886.47;462014;114;923048;-76
2022/10/26 01:59:11;;;;;;;6.13;5.73;;;;;;;12.37;87.62;100884.78;462010;114;923014;-76
2022/10/26 02:00:15;;;;;;;5.92;5.34;;;;;;;12.38;87.69;100883.73;461311;114;923160;-77
2022/10/26 02:01:37;;;;;;;5.51;5.11;;;;;;;12.38;87.66;100881.00;462242;114;922521;-76
2022/10/26 02:02:57;;;;;;;5.87;5.41;;;;;;;12.38;87.72;100880.16;464942;114;922603;-75
2022/10/26 02:04:12;;;;;;;5.66;5.28;;;;;;;12.39;87.58;100877.22;465284;113;922534;-76
2022/10/26 02:05:21;;;;;;;6.06;5.52;;;;;;;12.39;87.62;100885.42;465155;114;923080;-76
2022/10/26 02:06:46;;;;;;;5.50;5.15;;;;;;;12.37;87.66;100878.48;465062;114;922934;-75
2022/10/26 02:07:58;;;;;;;6.18;5.69;;;;;;;12.39;87.72;100876.38;465117;114;922677;-76
2022/10/26 02:09:08;;;;;;;6.37;5.97;;;;;;;12.37;87.75;100879.31;465126;113;922685;-76
2022/10/26 02:10:29;;;;;;;6.37;5.90;;;;;;;12.38;87.80;100880.16;465271;114;922943;-75
2022/10/26 02:11:42;;;;;;;5.64;5.31;;;;;;;12.38;87.88;100880.16;465307;114;922625;-76
2022/10/26 02:12:48;;;;;;;6.38;5.92;;;;;;;12.37;87.86;100876.59;464901;114;922654;-76
2022/10/26 02:14:13;;;;;;;6.47;5.91;;;;;;;12.38;87.94;100874.69;465301;113;922552;-75
2022/10/26 02:15:20;;;;;;;10.38;9.72;;;;;;;12.39;87.95;100876.38;465197;114;922862;-75
2022/10/26 02:16:59;;;;;;;8.51;7.91;;;;;;;12.38;87.98;100872.80;460820;114;922637;-75
2022/10/26 02:18:14;;;;;;;7.46;6.96;;;;;;;12.39;87.95;100879.11;457139;114;922502;-76
2022/10/26 02:19:38;;;;;;;6.03;5.58;;;;;;;12.38;88.01;100870.06;457351;114;923064;-76
2022/10/26 02:20:44;;;;;;;6.59;6.07;;;;;;;12.38;88.05;100875.53;457116;116;923459;-76
2022/10/26 02:21:51;;;;;;;6.51;5.95;;;;;;;12.38;88.07;100875.53;457208;116;922497;-76
2022/10/26 02:22:55;;;;;;;6.51;6.06;;;;;;;12.36;88.08;100866.70;457155;116;922586;-76
2022/10/26 02:23:58;;;;;;;6.18;5.78;;;;;;;12.37;88.09;100871.11;457235;116;923056;-75
2022/10/26 02:25:11;;;;;;;6.79;6.33;;;;;;;12.37;88.15;100873.01;457290;116;922515;-76
2022/10/26 02:26:16;;;;;;;6.31;5.41;;;;;;;12.38;88.17;100871.95;457126;114;931110;-76
2022/10/26 02:27:26;;;;;;;5.98;5.56;;;;;;;12.39;88.19;100868.17;457215;116;922915;-76
2022/10/26 02:28:33;;;;;;;6.10;5.69;;;;;;;12.39;88.21;100865.44;457170;114;922491;-76
2022/10/26 02:29:37;;;;;;;5.28;4.97;;;;;;;12.40;88.21;100869.85;457445;114;922568;-76
2022/10/26 02:30:42;;;;;;;5.41;5.01;;;;;;;12.40;88.21;100870.70;462182;114;923313;-74
2022/10/26 02:31:48;;;;;;;5.53;5.14;;;;;;;12.41;88.24;100871.50;462919;114;922444;-77
2022/10/26 02:32:53;;;;;;;5.03;4.63;;;;;;;12.42;88.23;100864.98;465340;114;923324;-74
2022/10/26 02:34:00;;;;;;;5.45;4.98;;;;;;;12.43;88.24;100866.66;465251;112;922597;-76
2022/10/26 02:35:05;;;;;;;5.17;4.74;;;;;;;12.44;88.24;100862.88;465333;114;923100;-77
2022/10/26 02:36:11;;;;;;;5.10;4.62;;;;;;;12.44;88.24;100865.61;465338;114;923001;-76
2022/10/26 02:37:17;;;;;;;4.51;4.12;;;;;;;12.44;88.30;100858.25;465337;114;923029;-75
2022/10/26 02:38:22;;;;;;;4.74;4.34;;;;;;;12.45;88.26;100853.62;465310;114;922584;-75
2022/10/26 02:39:28;;;;;;;5.12;4.77;;;;;;;12.45;88.27;100859.09;465258;113;923316;-76
2022/10/26 02:40:31;;;;;;;5.13;4.81;;;;;;;12.45;88.33;100861.83;464132;114;922624;-76
2022/10/26 02:41:36;;;;;;;4.86;4.43;;;;;;;12.45;88.33;100851.73;460799;115;922481;-75
2022/10/26 02:42:42;;;;;;;4.91;4.54;;;;;;;12.45;88.31;100854.46;460731;115;923868;-76
2022/10/26 02:43:49;;;;;;;5.30;4.76;;;;;;;12.46;88.33;100852.53;460572;113;930556;-76
2022/10/26 02:44:58;;;;;;;5.26;4.78;;;;;;;12.47;88.42;100854.22;460261;115;922503;-76
2022/10/26 02:46:05;;;;;;;4.93;4.63;;;;;;;12.47;88.42;100855.05;460618;115;922621;-77
2022/10/26 02:47:08;;;;;;;5.19;4.85;;;;;;;12.48;88.43;100854.00;460633;115;922521;-77
2022/10/26 02:48:13;;;;;;;5.42;4.79;;;;;;;12.49;88.37;100854.84;460702;115;922585;-77
2022/10/26 02:49:17;;;;;;;5.28;4.98;;;;;;;12.48;88.43;100851.27;460698;113;930572;-76
2022/10/26 02:50:24;;;;;;;4.84;4.53;;;;;;;12.49;88.34;100849.38;460758;115;923209;-76
2022/10/26 02:51:31;;;;;;;5.07;4.67;;;;;;;12.49;88.43;100844.75;460668;115;922639;-77
2022/10/26 02:52:49;;;;;;;5.64;5.12;;;;;;;12.50;88.36;100853.80;452521;117;922999;-77
2022/10/26 02:54:00;;;;;;;5.14;4.74;;;;;;;12.49;88.28;100860.31;452227;117;923243;-74
2022/10/26 02:55:15;;;;;;;5.15;4.73;;;;;;;12.49;88.27;100861.16;452546;117;922591;-74
2022/10/26 02:56:31;;;;;;;5.75;5.29;;;;;;;12.49;88.32;100855.69;452639;117;923065;-75
2022/10/26 02:57:38;;;;;;;4.80;4.50;;;;;;;12.48;88.32;100851.27;451323;117;923164;-76
2022/10/26 02:58:45;;;;;;;5.39;5.01;;;;;;;12.48;88.34;100850.43;457543;113;922581;-75
2022/10/26 02:59:48;;;;;;;5.75;5.35;;;;;;;12.47;88.41;100852.33;460530;115;922872;-75
2022/10/26 03:00:52;;;;;;;5.04;4.62;;;;;;;12.49;88.52;100852.11;460617;115;922669;-75
2022/10/26 03:01:55;;;;;;;4.96;4.62;;;;;;;12.48;88.45;100850.43;460619;115;924840;-76
2022/10/26 03:03:02;;;;;;;5.65;5.24;;;;;;;12.49;88.46;100852.11;460741;115;923047;-77
2022/10/26 03:04:04;;;;;;;4.74;4.44;;;;;;;12.50;88.45;100859.27;460583;113;922569;-76
2022/10/26 03:05:16;;;;;;;4.61;4.31;;;;;;;12.50;88.53;100846.43;460686;115;922518;-77
2022/10/26 03:06:21;;;;;;;4.67;4.33;;;;;;;12.49;88.51;100839.28;460542;115;922502;-76
2022/10/26 03:07:25;;;;;;;5.63;5.23;;;;;;;12.50;88.53;100845.59;460579;115;922592;-77
2022/10/26 03:08:28;;;;;;;4.90;4.54;;;;;;;12.49;88.54;100843.91;460697;115;922449;-77
2022/10/26 03:09:31;;;;;;;4.89;4.59;;;;;;;12.49;88.45;100838.44;460645;115;930537;-77
2022/10/26 03:10:37;;;;;;;5.68;5.25;;;;;;;12.48;88.43;100845.80;460720;115;922820;-77
2022/10/26 03:11:40;;;;;;;5.52;5.02;;;;;;;12.47;88.48;100844.12;460571;115;923059;-77
2022/10/26 03:12:44;;;;;;;5.01;4.61;;;;;;;12.47;88.48;100830.45;460798;115;922518;-76
2022/10/26 03:13:46;;;;;;;5.71;5.31;;;;;;;12.47;88.53;100840.55;460738;113;922973;-76
2022/10/26 03:14:49;;;;;;;5.24;4.85;;;;;;;12.47;88.55;100835.07;460770;115;922944;-77
2022/10/26 03:15:56;;;;;;;5.68;5.33;;;;;;;12.47;88.60;100833.17;460627;115;922520;-78
2022/10/26 03:16:59;;;;;;;5.79;5.29;;;;;;;12.47;88.52;100835.91;458617;115;923120;-78
2022/10/26 03:18:02;;;;;;;5.22;4.82;;;;;;;12.47;88.60;100833.17;458843;115;922528;-75
2022/10/26 03:19:05;;;;;;;5.37;4.97;;;;;;;12.48;88.53;100836.75;458788;115;923025;-77
2022/10/26 03:20:10;;;;;;;5.69;5.29;;;;;;;12.47;88.64;100829.60;458772;115;922561;-76
2022/10/26 03:21:13;;;;;;;4.94;4.62;;;;;;;12.46;88.52;100833.39;458749;115;922516;-76
2022/10/26 03:22:16;;;;;;;6.21;5.03;;;;;;;12.46;88.50;100830.66;458808;115;922813;-76
2022/10/26 03:23:19;;;;;;;5.16;4.72;;;;;;;12.45;88.54;100831.74;458806;115;922471;-77
2022/10/26 03:24:22;;;;;;;5.41;5.09;;;;;;;12.45;88.59;100827.11;458816;115;922927;-76
2022/10/26 03:25:25;;;;;;;5.31;4.96;;;;;;;12.44;88.60;100830.06;458811;115;922916;-76
2022/10/26 03:26:29;;;;;;;5.07;4.77;;;;;;;12.44;88.67;100827.33;458731;115;922608;-76
2022/10/26 03:27:32;;;;;;;5.24;4.84;;;;;;;12.43;88.59;100826.48;458779;115;930600;-77
2022/10/26 03:28:35;;;;;;;5.06;4.75;;;;;;;12.43;88.66;100822.91;458826;115;922755;-75
2022/10/26 03:29:38;;;;;;;5.11;4.69;;;;;;;12.41;88.73;100823.12;458704;115;922578;-76
2022/10/26 03:30:41;;;;;;;5.09;4.74;;;;;;;12.42;88.75;100818.49;456069;116;922516;-75
2022/10/26 03:31:44;;;;;;;4.94;4.64;;;;;;;12.42;88.83;100815.76;457164;115;922443;-75
2022/10/26 03:32:47;;;;;;;4.56;4.26;;;;;;;12.41;88.86;100805.88;460791;115;922466;-75
2022/10/26 03:33:50;;;;;;;5.03;4.29;;;;;;;12.42;88.94;100813.02;462351;113;922502;-76
2022/10/26 03:34:53;;;;;;;4.47;4.17;;;;;;;12.41;88.89;100809.45;467047;113;922415;-75
2022/10/26 03:35:56;;;;;;;5.01;4.61;;;;;;;12.41;88.92;100808.61;467008;113;922776;-76
2022/10/26 03:36:59;;;;;;;4.51;4.21;;;;;;;12.40;88.90;100801.48;467021;113;922789;-75
2022/10/26 03:38:02;;;;;;;5.06;4.62;;;;;;;12.40;89.06;100807.80;467039;113;922940;-76
2022/10/26 03:39:05;;;;;;;4.98;4.58;;;;;;;12.40;89.02;100805.06;467001;113;922877;-76
2022/10/26 03:40:09;;;;;;;4.51;4.21;;;;;;;12.41;88.96;100803.14;467043;113;923005;-76
2022/10/26 03:41:12;;;;;;;4.26;4.04;;;;;;;12.41;88.96;100803.14;466655;113;923124;-76
2022/10/26 03:42:15;;;;;;;5.36;4.96;;;;;;;12.41;88.96;100805.88;466472;113;922482;-76
2022/10/26 03:43:18;;;;;;;4.95;4.58;;;;;;;12.40;88.92;100802.33;466431;113;923027;-76
2022/10/26 03:44:21;;;;;;;4.91;4.61;;;;;;;12.40;88.95;100806.95;466400;113;922535;-76
2022/10/26 03:45:24;;;;;;;5.01;4.69;;;;;;;12.40;88.95;100805.06;466363;113;923069;-76
2022/10/26 03:46:27;;;;;;;5.09;4.77;;;;;;;12.40;89.06;100809.69;466407;113;930743;-76
2022/10/26 03:47:30;;;;;;;5.16;4.86;;;;;;;12.40;88.96;100809.69;466523;113;922871;-76
2022/10/26 03:48:33;;;;;;;4.84;4.38;;;;;;;12.40;88.94;100798.75;466497;113;922769;-76
2022/10/26 03:49:36;;;;;;;5.42;4.77;;;;;;;12.40;88.90;100801.48;466470;113;922995;-74
2022/10/26 03:50:40;;;;;;;4.84;4.53;;;;;;;12.39;88.90;100805.27;466332;113;922756;-75
2022/10/26 03:51:42;;;;;;;4.84;4.54;;;;;;;12.39;88.93;100803.37;466483;113;922538;-75
2022/10/26 03:52:46;;;;;;;4.81;4.49;;;;;;;12.39;88.97;100805.27;466487;113;923103;-75
2022/10/26 03:53:49;;;;;;;4.95;4.54;;;;;;;12.38;88.93;100809.91;466365;113;922828;-76
2022/10/26 03:54:53;;;;;;;5.54;5.14;;;;;;;12.38;88.98;100801.70;466347;113;922420;-77
2022/10/26 03:55:56;;;;;;;4.70;4.40;;;;;;;12.38;88.98;100804.44;466393;113;930516;-76
2022/10/26 03:56:59;;;;;;;4.83;4.53;;;;;;;12.39;89.03;100799.80;466436;113;922852;-76
2022/10/26 03:58:02;;;;;;;5.89;5.49;;;;;;;12.38;88.96;100800.86;466474;113;922450;-76
2022/10/26 03:59:05;;;;;;;6.09;5.67;;;;;;;12.38;88.97;100800.86;466459;113;922382;-76
2022/10/26 04:00:10;;;;;;;5.53;4.86;;;;;;;12.37;89.00;100797.28;466441;113;923022;-77
2022/10/26 04:01:17;;;;;;;5.25;4.92;;;;;;;12.36;89.03;100803.80;466240;113;922545;-75
2022/10/26 04:02:20;;;;;;;5.71;5.34;;;;;;;12.36;89.02;100803.80;466425;113;922475;-76
2022/10/26 04:03:23;;;;;;;5.08;4.68;;;;;;;12.36;89.02;100806.54;466455;113;922497;-76
2022/10/26 04:17:04;;;;;;;6.17;5.73;;;;;;;12.80;87.53;100808.30;477035;110;947129;-76
2022/10/26 04:18:08;;;;;;;6.03;5.57;;;;;;;12.69;87.46;100800.81;465591;114;922492;-76
2022/10/26 04:19:11;;;;;;;5.84;5.34;;;;;;;12.67;87.49;100802.12;465483;113;922529;-78
2022/10/26 04:20:14;;;;;;;5.85;5.35;;;;;;;12.63;87.56;100801.70;465514;114;922974;-77
2022/10/26 04:21:17;;;;;;;5.49;5.00;;;;;;;12.60;87.68;100804.90;460634;114;923100;-75
2022/10/26 04:22:20;;;;;;;5.58;5.17;;;;;;;12.58;87.95;100804.27;457475;115;922484;-76
2022/10/26 04:23:23;;;;;;;5.89;5.48;;;;;;;12.56;88.01;100805.58;457465;115;923223;-77
2022/10/26 04:24:27;;;;;;;5.94;5.54;;;;;;;12.52;88.16;100800.53;457392;115;922385;-78
2022/10/26 04:25:32;;;;;;;5.47;5.16;;;;;;;12.51;88.25;100803.51;457457;116;922574;-76
2022/10/26 04:26:36;;;;;;;5.75;5.36;;;;;;;12.48;88.39;100801.20;457224;114;922664;-77
2022/10/26 04:27:39;;;;;;;6.01;5.64;;;;;;;12.45;88.55;100794.30;457449;115;922546;-77
2022/10/26 04:28:42;;;;;;;5.72;5.33;;;;;;;12.43;88.62;100798.30;457466;115;922569;-77
2022/10/26 04:29:44;;;;;;;6.17;5.72;;;;;;;12.42;88.71;100796.62;457938;115;922927;-77
2022/10/26 04:30:47;;;;;;;5.71;5.31;;;;;;;12.40;88.84;100801.48;460583;115;922857;-77
2022/10/26 04:31:50;;;;;;;6.49;6.01;;;;;;;12.38;88.86;100798.97;459418;115;922701;-77
2022/10/26 04:32:53;;;;;;;5.87;5.47;;;;;;;12.36;88.88;100798.34;457542;115;923134;-78
2022/10/26 04:33:56;;;;;;;6.61;5.81;;;;;;;12.35;88.96;100801.31;457666;115;922695;-78
2022/10/26 04:34:59;;;;;;;5.60;5.28;;;;;;;12.33;89.05;100790.59;457548;116;922840;-77
2022/10/26 04:36:02;;;;;;;6.77;6.21;;;;;;;12.32;89.12;100794.38;457470;115;922918;-78
2022/10/26 04:37:04;;;;;;;6.37;5.97;;;;;;;12.31;89.16;100795.43;457545;115;922305;-76
2022/10/26 04:38:09;;;;;;;6.33;5.83;;;;;;;12.31;89.18;100792.70;457509;115;922381;-76
2022/10/26 04:39:12;;;;;;;5.77;5.39;;;;;;;12.29;89.23;100789.37;457314;116;922469;-77
2022/10/26 04:40:15;;;;;;;6.09;5.72;;;;;;;12.30;89.27;100784.70;457521;116;922481;-76
2022/10/26 04:41:18;;;;;;;5.61;5.21;;;;;;;12.29;89.33;100783.90;457432;114;922576;-78
2022/10/26 04:42:21;;;;;;;6.37;5.86;;;;;;;12.28;89.45;100784.95;457517;115;923092;-78
2022/10/26 04:43:23;;;;;;;5.87;5.49;;;;;;;12.27;89.46;100783.27;457463;115;922540;-76
2022/10/26 04:44:26;;;;;;;5.55;5.12;;;;;;;12.27;89.48;100785.16;457469;115;922946;-74
2022/10/26 04:45:30;;;;;;;5.59;5.19;;;;;;;12.26;89.60;100787.05;457439;115;922658;-76
2022/10/26 04:46:33;;;;;;;6.25;5.80;;;;;;;12.27;89.55;100787.89;457374;115;922569;-77
2022/10/26 04:47:36;;;;;;;5.81;5.37;;;;;;;12.27;89.60;100783.27;457476;115;922514;-78
2022/10/26 04:48:39;;;;;;;5.70;5.32;;;;;;;12.27;89.63;100787.89;457491;115;922590;-78
2022/10/26 04:49:42;;;;;;;6.01;5.61;;;;;;;12.26;89.66;100787.05;457352;116;922985;-75
2022/10/26 04:50:46;;;;;;;6.56;6.11;;;;;;;12.27;89.72;100780.53;457370;114;922603;-76
2022/10/26 04:51:49;;;;;;;6.89;6.39;;;;;;;12.28;89.69;100782.22;458470;115;922877;-76
2022/10/26 04:52:52;;;;;;;6.06;5.66;;;;;;;12.28;89.74;100782.22;461714;115;922951;-76
2022/10/26 04:53:57;;;;;;;5.78;5.42;;;;;;;12.29;89.84;100783.06;460653;114;922620;-77
2022/10/26 04:55:00;;;;;;;6.35;5.89;;;;;;;12.29;89.78;100788.52;460566;115;923051;-76
2022/10/26 04:56:03;;;;;;;6.79;6.31;;;;;;;12.30;89.77;100784.70;461578;115;930447;-77
2022/10/26 04:57:06;;;;;;;6.14;5.64;;;;;;;12.30;89.76;100784.70;461700;115;923122;-77
2022/10/26 04:58:09;;;;;;;6.03;5.62;;;;;;;12.30;89.76;100787.44;461713;115;922542;-78
2022/10/26 04:59:12;;;;;;;5.47;5.16;;;;;;;12.29;89.71;100783.06;461681;115;922703;-77
2022/10/26 05:00:16;;;;;;;6.35;5.91;;;;;;;12.30;89.71;100784.70;461640;115;922872;-75
2022/10/26 05:01:19;;;;;;;5.53;5.14;;;;;;;12.31;89.72;100786.39;461581;115;930531;-76
2022/10/26 05:02:22;;;;;;;6.30;5.90;;;;;;;12.31;89.74;100786.39;461699;115;922870;-76
2022/10/26 05:03:25;;;;;;;7.23;6.61;;;;;;;12.30;89.75;100777.34;461705;115;923056;-77
2022/10/26 05:04:28;;;;;;;6.51;6.09;;;;;;;12.31;89.80;100778.19;461704;115;922447;-78
2022/10/26 05:05:34;;;;;;;6.28;5.87;;;;;;;12.32;89.79;100782.60;461704;115;922520;-78
2022/10/26 05:06:37;;;;;;;6.37;5.95;;;;;;;12.33;89.79;100781.55;461441;115;922444;-78
2022/10/26 05:07:40;;;;;;;6.56;6.11;;;;;;;12.33;89.89;100779.66;461667;115;922461;-78
2022/10/26 05:08:43;;;;;;;7.00;6.50;;;;;;;12.34;89.82;100784.07;461712;115;923027;-76
2022/10/26 05:09:46;;;;;;;6.17;5.78;;;;;;;12.36;89.79;100783.83;461701;115;922443;-77
2022/10/26 05:10:49;;;;;;;6.47;6.07;;;;;;;12.36;89.83;100789.30;461727;114;922625;-78
2022/10/26 05:11:53;;;;;;;6.04;5.60;;;;;;;12.37;89.80;100780.04;461609;115;922653;-76
2022/10/26 05:12:58;;;;;;;6.17;5.77;;;;;;;12.37;89.85;100778.14;461719;115;922521;-76
2022/10/26 05:14:02;;;;;;;6.47;5.97;;;;;;;12.37;89.84;100780.88;461484;115;922508;-76
2022/10/26 05:15:06;;;;;;;6.58;6.14;;;;;;;12.38;89.87;100781.72;461666;115;922413;-76
2022/10/26 05:16:13;;;;;;;6.95;6.46;;;;;;;12.39;89.85;100784.23;458543;115;922622;-77
2022/10/26 05:17:16;;;;;;;6.75;6.09;;;;;;;12.40;89.83;100787.81;453676;116;922800;-75